sensor_id;sensor_type;location;lat;lon;timestamp;temperature;humidity
57857;DHT22;43683;48.650;9.290;2023-02-01T00:00:11;3.70;86.20
57857;DHT22;43683;48.650;9.290;2023-02-01T00:02:37;3.70;86.10
57857;DHT22;43683;48.650;9.290;2023-02-01T00:05:07;3.70;86.10
57857;DHT22;43683;48.650;9.290;2023-02-01T00:07:34;3.70;86.20
57857;DHT22;43683;48.650;9.290;2023-02-01T00:09:59;3.60;86.30
57857;DHT22;43683;48.650;9.290;2023-02-01T00:12:25;3.60;86.40
57857;DHT22;43683;48.650;9.290;2023-02-01T00:14:50;3.60;86.40
57857;DHT22;43683;48.650;9.290;2023-02-01T00:17:16;3.60;86.60
57857;DHT22;43683;48.650;9.290;2023-02-01T00:19:41;3.50;87.40
57857;DHT22;43683;48.650;9.290;2023-02-01T00:22:07;3.50;86.80
57857;DHT22;43683;48.650;9.290;2023-02-01T00:24:32;3.50;86.90
57857;DHT22;43683;48.650;9.290;2023-02-01T00:26:57;3.40;86.90
57857;DHT22;43683;48.650;9.290;2023-02-01T00:29:23;3.40;87.10
57857;DHT22;43683;48.650;9.290;2023-02-01T00:31:50;3.40;87.30
57857;DHT22;43683;48.650;9.290;2023-02-01T00:34:16;3.40;87.30
57857;DHT22;43683;48.650;9.290;2023-02-01T00:36:43;3.40;87.30
57857;DHT22;43683;48.650;9.290;2023-02-01T00:39:09;3.40;87.20
57857;DHT22;43683;48.650;9.290;2023-02-01T00:41:35;3.40;87.30
57857;DHT22;43683;48.650;9.290;2023-02-01T00:44:00;3.40;87.40
57857;DHT22;43683;48.650;9.290;2023-02-01T00:46:26;3.40;87.40
57857;DHT22;43683;48.650;9.290;2023-02-01T00:48:52;3.40;87.40
57857;DHT22;43683;48.650;9.290;2023-02-01T00:51:21;3.40;87.40
57857;DHT22;43683;48.650;9.290;2023-02-01T00:53:47;3.40;87.60
57857;DHT22;43683;48.650;9.290;2023-02-01T00:56:13;3.40;87.50
57857;DHT22;43683;48.650;9.290;2023-02-01T00:58:39;3.50;87.60
57857;DHT22;43683;48.650;9.290;2023-02-01T01:01:10;3.50;87.60
57857;DHT22;43683;48.650;9.290;2023-02-01T01:03:39;3.50;87.60
57857;DHT22;43683;48.650;9.290;2023-02-01T01:06:07;3.50;87.60
57857;DHT22;43683;48.650;9.290;2023-02-01T01:08:35;3.50;87.60
57857;DHT22;43683;48.650;9.290;2023-02-01T01:11:08;3.50;87.70
57857;DHT22;43683;48.650;9.290;2023-02-01T01:13:35;3.50;87.80
57857;DHT22;43683;48.650;9.290;2023-02-01T01:16:03;3.50;87.80
57857;DHT22;43683;48.650;9.290;2023-02-01T01:18:30;3.50;87.80
57857;DHT22;43683;48.650;9.290;2023-02-01T01:20:56;3.50;88.50
57857;DHT22;43683;48.650;9.290;2023-02-01T01:23:22;3.50;87.80
57857;DHT22;43683;48.650;9.290;2023-02-01T01:25:47;3.50;87.80
57857;DHT22;43683;48.650;9.290;2023-02-01T01:28:13;3.50;87.80
57857;DHT22;43683;48.650;9.290;2023-02-01T01:30:38;3.50;87.90
57857;DHT22;43683;48.650;9.290;2023-02-01T01:33:04;3.60;87.90
57857;DHT22;43683;48.650;9.290;2023-02-01T01:35:31;3.60;87.90
57857;DHT22;43683;48.650;9.290;2023-02-01T01:37:57;3.60;87.90
57857;DHT22;43683;48.650;9.290;2023-02-01T01:40:23;3.60;87.90
57857;DHT22;43683;48.650;9.290;2023-02-01T01:42:49;3.60;88.00
57857;DHT22;43683;48.650;9.290;2023-02-01T01:45:23;3.60;88.00
57857;DHT22;43683;48.650;9.290;2023-02-01T01:47:52;3.60;88.10
57857;DHT22;43683;48.650;9.290;2023-02-01T01:50:29;3.60;88.10
57857;DHT22;43683;48.650;9.290;2023-02-01T01:52:57;3.60;88.10
57857;DHT22;43683;48.650;9.290;2023-02-01T01:55:25;3.70;88.10
57857;DHT22;43683;48.650;9.290;2023-02-01T01:57:59;3.70;88.10
57857;DHT22;43683;48.650;9.290;2023-02-01T02:00:26;3.70;88.10
57857;DHT22;43683;48.650;9.290;2023-02-01T02:03:03;3.70;88.00
57857;DHT22;43683;48.650;9.290;2023-02-01T02:05:32;3.70;88.00
57857;DHT22;43683;48.650;9.290;2023-02-01T02:07:59;3.70;88.00
57857;DHT22;43683;48.650;9.290;2023-02-01T02:10:26;3.70;88.10
57857;DHT22;43683;48.650;9.290;2023-02-01T02:13:13;3.70;88.20
57857;DHT22;43683;48.650;9.290;2023-02-01T02:15:41;3.70;88.20
57857;DHT22;43683;48.650;9.290;2023-02-01T02:18:18;3.70;88.20
57857;DHT22;43683;48.650;9.290;2023-02-01T02:24:33;3.70;88.30
57857;DHT22;43683;48.650;9.290;2023-02-01T02:27:07;3.70;88.20
57857;DHT22;43683;48.650;9.290;2023-02-01T02:30:00;3.70;88.20
57857;DHT22;43683;48.650;9.290;2023-02-01T02:32:52;3.70;88.50
57857;DHT22;43683;48.650;9.290;2023-02-01T02:35:29;3.80;88.20
57857;DHT22;43683;48.650;9.290;2023-02-01T02:40:49;3.90;88.00
57857;DHT22;43683;48.650;9.290;2023-02-01T02:43:20;3.90;87.90
57857;DHT22;43683;48.650;9.290;2023-02-01T02:46:12;3.90;87.80
57857;DHT22;43683;48.650;9.290;2023-02-01T02:49:05;4.00;87.80
57857;DHT22;43683;48.650;9.290;2023-02-01T02:51:42;4.00;87.80
57857;DHT22;43683;48.650;9.290;2023-02-01T02:54:34;4.00;87.80
57857;DHT22;43683;48.650;9.290;2023-02-01T02:57:24;4.00;87.70
57857;DHT22;43683;48.650;9.290;2023-02-01T03:00:14;4.00;87.70
57857;DHT22;43683;48.650;9.290;2023-02-01T03:02:59;4.00;87.70
57857;DHT22;43683;48.650;9.290;2023-02-01T03:05:46;4.10;87.70
57857;DHT22;43683;48.650;9.290;2023-02-01T03:08:17;4.10;87.70
57857;DHT22;43683;48.650;9.290;2023-02-01T03:11:09;4.10;87.70
57857;DHT22;43683;48.650;9.290;2023-02-01T03:13:45;4.10;87.70
57857;DHT22;43683;48.650;9.290;2023-02-01T03:16:28;4.10;87.80
57857;DHT22;43683;48.650;9.290;2023-02-01T03:21:40;4.00;88.10
57857;DHT22;43683;48.650;9.290;2023-02-01T03:24:14;4.00;88.10
57857;DHT22;43683;48.650;9.290;2023-02-01T03:26:45;4.00;88.20
57857;DHT22;43683;48.650;9.290;2023-02-01T03:29:18;3.90;88.40
57857;DHT22;43683;48.650;9.290;2023-02-01T03:31:46;3.90;88.60
57857;DHT22;43683;48.650;9.290;2023-02-01T03:34:12;3.90;88.80
57857;DHT22;43683;48.650;9.290;2023-02-01T03:36:50;3.90;88.80
57857;DHT22;43683;48.650;9.290;2023-02-01T03:39:32;3.90;88.90
57857;DHT22;43683;48.650;9.290;2023-02-01T03:42:03;3.90;88.80
57857;DHT22;43683;48.650;9.290;2023-02-01T03:44:34;3.90;88.80
57857;DHT22;43683;48.650;9.290;2023-02-01T03:47:08;3.90;88.80
57857;DHT22;43683;48.650;9.290;2023-02-01T03:49:41;4.00;88.70
57857;DHT22;43683;48.650;9.290;2023-02-01T03:52:12;4.00;88.60
57857;DHT22;43683;48.650;9.290;2023-02-01T03:54:39;4.00;88.50
57857;DHT22;43683;48.650;9.290;2023-02-01T03:57:09;4.00;88.50
57857;DHT22;43683;48.650;9.290;2023-02-01T03:59:41;3.90;88.70
57857;DHT22;43683;48.650;9.290;2023-02-01T04:02:06;3.90;88.90
57857;DHT22;43683;48.650;9.290;2023-02-01T04:04:33;3.90;89.10
57857;DHT22;43683;48.650;9.290;2023-02-01T04:06:59;3.90;89.20
57857;DHT22;43683;48.650;9.290;2023-02-01T04:09:24;3.80;89.20
57857;DHT22;43683;48.650;9.290;2023-02-01T04:11:50;3.90;89.30
57857;DHT22;43683;48.650;9.290;2023-02-01T04:14:15;3.90;89.40
57857;DHT22;43683;48.650;9.290;2023-02-01T04:16:41;3.90;89.50
57857;DHT22;43683;48.650;9.290;2023-02-01T04:19:07;3.90;89.50
57857;DHT22;43683;48.650;9.290;2023-02-01T04:21:32;3.90;89.40
57857;DHT22;43683;48.650;9.290;2023-02-01T04:23:58;3.90;89.40
57857;DHT22;43683;48.650;9.290;2023-02-01T04:26:23;3.90;89.30
57857;DHT22;43683;48.650;9.290;2023-02-01T04:28:49;4.00;89.40
57857;DHT22;43683;48.650;9.290;2023-02-01T04:31:15;4.00;89.30
57857;DHT22;43683;48.650;9.290;2023-02-01T04:33:41;4.00;89.30
57857;DHT22;43683;48.650;9.290;2023-02-01T04:36:07;4.00;89.30
57857;DHT22;43683;48.650;9.290;2023-02-01T04:38:33;4.00;89.30
57857;DHT22;43683;48.650;9.290;2023-02-01T04:40:59;4.10;89.20
57857;DHT22;43683;48.650;9.290;2023-02-01T04:43:25;4.10;89.10
57857;DHT22;43683;48.650;9.290;2023-02-01T04:45:51;4.20;89.10
57857;DHT22;43683;48.650;9.290;2023-02-01T04:48:18;4.20;89.10
57857;DHT22;43683;48.650;9.290;2023-02-01T04:50:45;4.10;89.10
57857;DHT22;43683;48.650;9.290;2023-02-01T04:53:15;4.10;89.10
57857;DHT22;43683;48.650;9.290;2023-02-01T04:55:41;4.10;89.20
57857;DHT22;43683;48.650;9.290;2023-02-01T04:58:07;4.10;89.20
57857;DHT22;43683;48.650;9.290;2023-02-01T05:00:33;4.10;89.30
57857;DHT22;43683;48.650;9.290;2023-02-01T05:02:58;4.10;89.30
57857;DHT22;43683;48.650;9.290;2023-02-01T05:05:24;4.10;89.30
57857;DHT22;43683;48.650;9.290;2023-02-01T05:07:49;4.10;89.30
57857;DHT22;43683;48.650;9.290;2023-02-01T05:10:15;4.10;89.20
57857;DHT22;43683;48.650;9.290;2023-02-01T05:12:43;4.10;89.20
57857;DHT22;43683;48.650;9.290;2023-02-01T05:15:28;4.10;89.30
57857;DHT22;43683;48.650;9.290;2023-02-01T05:17:53;4.10;89.30
57857;DHT22;43683;48.650;9.290;2023-02-01T05:20:19;4.10;89.30
57857;DHT22;43683;48.650;9.290;2023-02-01T05:22:44;4.10;89.40
57857;DHT22;43683;48.650;9.290;2023-02-01T05:25:10;4.00;90.10
57857;DHT22;43683;48.650;9.290;2023-02-01T05:27:35;3.90;89.60
57857;DHT22;43683;48.650;9.290;2023-02-01T05:30:05;3.90;89.80
57857;DHT22;43683;48.650;9.290;2023-02-01T05:32:31;3.80;89.80
57857;DHT22;43683;48.650;9.290;2023-02-01T05:34:57;3.80;89.80
57857;DHT22;43683;48.650;9.290;2023-02-01T05:37:23;3.80;89.70
57857;DHT22;43683;48.650;9.290;2023-02-01T05:39:48;3.90;89.70
57857;DHT22;43683;48.650;9.290;2023-02-01T05:42:14;3.90;89.50
57857;DHT22;43683;48.650;9.290;2023-02-01T05:44:40;4.00;89.40
57857;DHT22;43683;48.650;9.290;2023-02-01T05:47:05;4.00;89.10
57857;DHT22;43683;48.650;9.290;2023-02-01T05:49:31;4.10;89.00
57857;DHT22;43683;48.650;9.290;2023-02-01T05:51:57;4.10;88.80
57857;DHT22;43683;48.650;9.290;2023-02-01T05:54:22;4.20;88.80
57857;DHT22;43683;48.650;9.290;2023-02-01T05:56:48;4.20;88.70
57857;DHT22;43683;48.650;9.290;2023-02-01T05:59:13;4.20;88.60
57857;DHT22;43683;48.650;9.290;2023-02-01T06:01:39;4.20;88.40
57857;DHT22;43683;48.650;9.290;2023-02-01T06:04:04;4.20;88.50
57857;DHT22;43683;48.650;9.290;2023-02-01T06:06:30;4.10;88.70
57857;DHT22;43683;48.650;9.290;2023-02-01T06:08:55;4.10;88.90
57857;DHT22;43683;48.650;9.290;2023-02-01T06:11:21;4.00;88.90
57857;DHT22;43683;48.650;9.290;2023-02-01T06:13:46;4.00;89.00
57857;DHT22;43683;48.650;9.290;2023-02-01T06:16:12;4.00;89.10
57857;DHT22;43683;48.650;9.290;2023-02-01T06:18:39;3.90;89.10
57857;DHT22;43683;48.650;9.290;2023-02-01T06:21:04;3.90;89.20
57857;DHT22;43683;48.650;9.290;2023-02-01T06:23:30;3.90;89.20
57857;DHT22;43683;48.650;9.290;2023-02-01T06:26:02;3.90;89.20
57857;DHT22;43683;48.650;9.290;2023-02-01T06:28:28;3.80;89.60
57857;DHT22;43683;48.650;9.290;2023-02-01T06:30:54;3.70;89.90
57857;DHT22;43683;48.650;9.290;2023-02-01T06:33:19;3.50;90.10
57857;DHT22;43683;48.650;9.290;2023-02-01T06:35:45;3.50;90.20
57857;DHT22;43683;48.650;9.290;2023-02-01T06:38:11;3.50;90.30
57857;DHT22;43683;48.650;9.290;2023-02-01T06:40:37;3.40;90.30
57857;DHT22;43683;48.650;9.290;2023-02-01T06:43:03;3.40;90.30
57857;DHT22;43683;48.650;9.290;2023-02-01T06:45:29;3.40;90.40
57857;DHT22;43683;48.650;9.290;2023-02-01T06:47:55;3.50;90.40
57857;DHT22;43683;48.650;9.290;2023-02-01T06:50:20;3.50;90.40
57857;DHT22;43683;48.650;9.290;2023-02-01T06:52:46;3.50;90.30
57857;DHT22;43683;48.650;9.290;2023-02-01T06:55:12;3.50;90.30
57857;DHT22;43683;48.650;9.290;2023-02-01T06:57:38;3.60;90.30
57857;DHT22;43683;48.650;9.290;2023-02-01T07:00:04;3.70;90.20
57857;DHT22;43683;48.650;9.290;2023-02-01T07:02:30;3.80;90.10
57857;DHT22;43683;48.650;9.290;2023-02-01T07:04:56;3.80;90.00
57857;DHT22;43683;48.650;9.290;2023-02-01T07:07:21;3.90;90.00
57857;DHT22;43683;48.650;9.290;2023-02-01T07:09:48;3.90;90.00
57857;DHT22;43683;48.650;9.290;2023-02-01T07:12:14;3.90;89.90
57857;DHT22;43683;48.650;9.290;2023-02-01T07:14:39;4.00;90.00
57857;DHT22;43683;48.650;9.290;2023-02-01T07:17:05;4.00;89.80
57857;DHT22;43683;48.650;9.290;2023-02-01T07:19:30;4.00;89.80
57857;DHT22;43683;48.650;9.290;2023-02-01T07:21:56;3.90;89.80
57857;DHT22;43683;48.650;9.290;2023-02-01T07:24:22;4.00;89.80
57857;DHT22;43683;48.650;9.290;2023-02-01T07:26:47;4.00;89.80
57857;DHT22;43683;48.650;9.290;2023-02-01T07:29:13;4.10;89.90
57857;DHT22;43683;48.650;9.290;2023-02-01T07:31:38;4.00;89.90
57857;DHT22;43683;48.650;9.290;2023-02-01T07:34:04;4.00;89.80
57857;DHT22;43683;48.650;9.290;2023-02-01T07:36:30;4.10;89.80
57857;DHT22;43683;48.650;9.290;2023-02-01T07:38:55;4.10;89.80
57857;DHT22;43683;48.650;9.290;2023-02-01T07:41:22;4.10;89.70
57857;DHT22;43683;48.650;9.290;2023-02-01T07:43:47;4.10;89.80
57857;DHT22;43683;48.650;9.290;2023-02-01T07:46:13;4.20;89.80
57857;DHT22;43683;48.650;9.290;2023-02-01T07:48:40;4.20;89.70
57857;DHT22;43683;48.650;9.290;2023-02-01T07:51:09;4.20;89.60
57857;DHT22;43683;48.650;9.290;2023-02-01T07:53:35;4.30;89.50
57857;DHT22;43683;48.650;9.290;2023-02-01T07:56:01;4.30;89.30
57857;DHT22;43683;48.650;9.290;2023-02-01T07:58:27;4.40;89.30
57857;DHT22;43683;48.650;9.290;2023-02-01T08:00:53;4.40;89.20
57857;DHT22;43683;48.650;9.290;2023-02-01T08:03:38;4.40;89.10
57857;DHT22;43683;48.650;9.290;2023-02-01T08:06:04;4.50;89.20
57857;DHT22;43683;48.650;9.290;2023-02-01T08:08:30;4.50;89.20
57857;DHT22;43683;48.650;9.290;2023-02-01T08:11:04;4.50;89.10
57857;DHT22;43683;48.650;9.290;2023-02-01T08:13:30;4.50;89.20
57857;DHT22;43683;48.650;9.290;2023-02-01T08:15:59;4.50;89.10
57857;DHT22;43683;48.650;9.290;2023-02-01T08:18:25;4.50;89.10
57857;DHT22;43683;48.650;9.290;2023-02-01T08:20:50;4.50;89.20
57857;DHT22;43683;48.650;9.290;2023-02-01T08:23:16;4.50;89.20
57857;DHT22;43683;48.650;9.290;2023-02-01T08:25:42;4.50;89.20
57857;DHT22;43683;48.650;9.290;2023-02-01T08:28:08;4.60;89.30
57857;DHT22;43683;48.650;9.290;2023-02-01T08:30:35;4.60;89.30
57857;DHT22;43683;48.650;9.290;2023-02-01T08:33:01;4.60;89.20
57857;DHT22;43683;48.650;9.290;2023-02-01T08:35:27;4.60;89.10
57857;DHT22;43683;48.650;9.290;2023-02-01T08:37:52;4.60;89.10
57857;DHT22;43683;48.650;9.290;2023-02-01T08:40:18;4.60;89.00
57857;DHT22;43683;48.650;9.290;2023-02-01T08:42:44;4.60;89.00
57857;DHT22;43683;48.650;9.290;2023-02-01T08:45:17;4.60;89.50
57857;DHT22;43683;48.650;9.290;2023-02-01T08:47:42;4.70;89.00
57857;DHT22;43683;48.650;9.290;2023-02-01T08:50:08;4.70;89.00
57857;DHT22;43683;48.650;9.290;2023-02-01T08:52:34;4.70;88.80
57857;DHT22;43683;48.650;9.290;2023-02-01T08:54:59;4.80;88.80
57857;DHT22;43683;48.650;9.290;2023-02-01T08:57:25;4.90;89.20
57857;DHT22;43683;48.650;9.290;2023-02-01T08:59:50;5.00;88.20
57857;DHT22;43683;48.650;9.290;2023-02-01T09:02:16;5.10;87.90
57857;DHT22;43683;48.650;9.290;2023-02-01T09:04:42;5.10;87.50
57857;DHT22;43683;48.650;9.290;2023-02-01T09:07:09;5.20;87.50
57857;DHT22;43683;48.650;9.290;2023-02-01T09:09:35;5.20;88.30
57857;DHT22;43683;48.650;9.290;2023-02-01T09:12:01;5.10;87.70
57857;DHT22;43683;48.650;9.290;2023-02-01T09:14:27;5.10;87.80
57857;DHT22;43683;48.650;9.290;2023-02-01T09:16:52;5.10;87.80
57857;DHT22;43683;48.650;9.290;2023-02-01T09:19:18;5.10;87.80
57857;DHT22;43683;48.650;9.290;2023-02-01T09:21:43;5.10;87.80
57857;DHT22;43683;48.650;9.290;2023-02-01T09:24:10;5.00;87.80
57857;DHT22;43683;48.650;9.290;2023-02-01T09:26:36;5.10;87.80
57857;DHT22;43683;48.650;9.290;2023-02-01T09:29:02;5.00;87.80
57857;DHT22;43683;48.650;9.290;2023-02-01T09:31:29;5.00;87.80
57857;DHT22;43683;48.650;9.290;2023-02-01T09:33:55;5.00;87.80
57857;DHT22;43683;48.650;9.290;2023-02-01T09:36:20;5.00;87.80
57857;DHT22;43683;48.650;9.290;2023-02-01T09:38:46;5.00;87.80
57857;DHT22;43683;48.650;9.290;2023-02-01T09:44:42;5.00;87.70
57857;DHT22;43683;48.650;9.290;2023-02-01T09:47:15;5.00;87.60
57857;DHT22;43683;48.650;9.290;2023-02-01T09:50:02;5.00;87.50
57857;DHT22;43683;48.650;9.290;2023-02-01T09:52:36;5.10;87.40
57857;DHT22;43683;48.650;9.290;2023-02-01T09:55:10;5.10;87.40
57857;DHT22;43683;48.650;9.290;2023-02-01T09:57:49;5.10;87.40
57857;DHT22;43683;48.650;9.290;2023-02-01T10:00:29;5.00;87.40
57857;DHT22;43683;48.650;9.290;2023-02-01T10:02:55;5.10;87.40
57857;DHT22;43683;48.650;9.290;2023-02-01T10:08:24;5.30;86.80
57857;DHT22;43683;48.650;9.290;2023-02-01T10:10:51;5.50;86.50
57857;DHT22;43683;48.650;9.290;2023-02-01T10:22:05;5.50;86.10
57857;DHT22;43683;48.650;9.290;2023-02-01T10:24:37;5.50;86.20
57857;DHT22;43683;48.650;9.290;2023-02-01T10:27:14;5.50;86.30
57857;DHT22;43683;48.650;9.290;2023-02-01T10:29:44;5.50;86.30
57857;DHT22;43683;48.650;9.290;2023-02-01T10:32:22;5.50;86.40
57857;DHT22;43683;48.650;9.290;2023-02-01T10:34:55;5.50;86.30
57857;DHT22;43683;48.650;9.290;2023-02-01T10:37:33;5.50;86.20
57857;DHT22;43683;48.650;9.290;2023-02-01T10:40:02;5.60;86.20
57857;DHT22;43683;48.650;9.290;2023-02-01T10:42:34;5.60;86.30
57857;DHT22;43683;48.650;9.290;2023-02-01T10:45:02;5.60;86.30
57857;DHT22;43683;48.650;9.290;2023-02-01T10:47:27;5.60;86.20
57857;DHT22;43683;48.650;9.290;2023-02-01T10:50:11;5.60;86.20
57857;DHT22;43683;48.650;9.290;2023-02-01T10:52:54;5.60;86.10
57857;DHT22;43683;48.650;9.290;2023-02-01T10:55:49;5.60;85.90
57857;DHT22;43683;48.650;9.290;2023-02-01T10:58:29;5.70;85.70
57857;DHT22;43683;48.650;9.290;2023-02-01T11:01:01;5.70;85.70
57857;DHT22;43683;48.650;9.290;2023-02-01T11:05:58;5.70;85.70
57857;DHT22;43683;48.650;9.290;2023-02-01T11:08:24;5.70;85.60
57857;DHT22;43683;48.650;9.290;2023-02-01T11:11:01;5.80;85.50
57857;DHT22;43683;48.650;9.290;2023-02-01T11:13:33;5.80;85.30
57857;DHT22;43683;48.650;9.290;2023-02-01T11:16:03;5.70;85.30
57857;DHT22;43683;48.650;9.290;2023-02-01T11:18:31;5.70;85.20
57857;DHT22;43683;48.650;9.290;2023-02-01T11:20:57;5.80;85.10
57857;DHT22;43683;48.650;9.290;2023-02-01T11:23:25;5.90;85.00
57857;DHT22;43683;48.650;9.290;2023-02-01T11:25:53;6.10;84.50
57857;DHT22;43683;48.650;9.290;2023-02-01T11:28:22;6.40;84.10
57857;DHT22;43683;48.650;9.290;2023-02-01T11:30:48;6.50;83.60
57857;DHT22;43683;48.650;9.290;2023-02-01T11:33:19;6.60;83.30
57857;DHT22;43683;48.650;9.290;2023-02-01T11:35:47;6.70;83.10
57857;DHT22;43683;48.650;9.290;2023-02-01T11:38:29;6.80;83.00
57857;DHT22;43683;48.650;9.290;2023-02-01T11:40:55;6.80;82.90
57857;DHT22;43683;48.650;9.290;2023-02-01T11:43:35;6.70;83.20
57857;DHT22;43683;48.650;9.290;2023-02-01T11:46:02;6.80;83.30
57857;DHT22;43683;48.650;9.290;2023-02-01T11:48:32;6.80;83.00
57857;DHT22;43683;48.650;9.290;2023-02-01T11:54:02;7.00;82.20
57857;DHT22;43683;48.650;9.290;2023-02-01T11:57:10;7.10;82.00
57857;DHT22;43683;48.650;9.290;2023-02-01T12:18:38;6.60;82.10
57857;DHT22;43683;48.650;9.290;2023-02-01T12:24:31;6.50;82.20
57857;DHT22;43683;48.650;9.290;2023-02-01T12:27:32;6.60;81.80
57857;DHT22;43683;48.650;9.290;2023-02-01T12:39:07;6.20;82.30
57857;DHT22;43683;48.650;9.290;2023-02-01T12:44:08;6.00;82.40
57857;DHT22;43683;48.650;9.290;2023-02-01T12:46:46;6.00;82.40
57857;DHT22;43683;48.650;9.290;2023-02-01T12:49:19;6.00;82.50
57857;DHT22;43683;48.650;9.290;2023-02-01T12:51:53;6.00;82.50
57857;DHT22;43683;48.650;9.290;2023-02-01T12:54:23;6.00;82.50
57857;DHT22;43683;48.650;9.290;2023-02-01T12:57:05;6.00;82.50
57857;DHT22;43683;48.650;9.290;2023-02-01T12:59:54;5.90;82.40
57857;DHT22;43683;48.650;9.290;2023-02-01T13:03:18;5.90;82.50
57857;DHT22;43683;48.650;9.290;2023-02-01T13:05:58;5.90;82.50
57857;DHT22;43683;48.650;9.290;2023-02-01T13:08:36;5.90;82.40
57857;DHT22;43683;48.650;9.290;2023-02-01T13:11:08;5.90;82.50
57857;DHT22;43683;48.650;9.290;2023-02-01T13:13:51;5.80;82.30
57857;DHT22;43683;48.650;9.290;2023-02-01T13:16:32;5.80;82.30
57857;DHT22;43683;48.650;9.290;2023-02-01T13:19:24;5.80;82.20
57857;DHT22;43683;48.650;9.290;2023-02-01T13:21:55;5.80;82.30
57857;DHT22;43683;48.650;9.290;2023-02-01T13:24:44;5.80;82.30
57857;DHT22;43683;48.650;9.290;2023-02-01T13:27:15;5.80;82.20
57857;DHT22;43683;48.650;9.290;2023-02-01T13:30:07;5.70;82.20
57857;DHT22;43683;48.650;9.290;2023-02-01T13:35:29;5.70;82.20
57857;DHT22;43683;48.650;9.290;2023-02-01T13:40:45;5.70;81.90
57857;DHT22;43683;48.650;9.290;2023-02-01T13:43:24;5.80;81.90
57857;DHT22;43683;48.650;9.290;2023-02-01T13:45:55;5.80;81.70
57857;DHT22;43683;48.650;9.290;2023-02-01T13:48:48;5.90;81.60
57857;DHT22;43683;48.650;9.290;2023-02-01T13:51:15;5.90;81.40
57857;DHT22;43683;48.650;9.290;2023-02-01T13:53:46;5.90;81.50
57857;DHT22;43683;48.650;9.290;2023-02-01T13:56:18;5.90;81.40
57857;DHT22;43683;48.650;9.290;2023-02-01T13:58:46;5.80;81.40
57857;DHT22;43683;48.650;9.290;2023-02-01T14:03:54;5.80;81.60
57857;DHT22;43683;48.650;9.290;2023-02-01T14:11:38;5.70;81.40
57857;DHT22;43683;48.650;9.290;2023-02-01T14:19:31;5.80;81.00
57857;DHT22;43683;48.650;9.290;2023-02-01T14:22:40;5.80;81.10
57857;DHT22;43683;48.650;9.290;2023-02-01T14:24:57;5.80;81.10
57857;DHT22;43683;48.650;9.290;2023-02-01T14:27:25;5.70;81.00
57857;DHT22;43683;48.650;9.290;2023-02-01T14:29:56;5.70;81.00
57857;DHT22;43683;48.650;9.290;2023-02-01T14:32:26;5.70;81.00
57857;DHT22;43683;48.650;9.290;2023-02-01T14:34:58;5.70;81.10
57857;DHT22;43683;48.650;9.290;2023-02-01T14:37:29;5.70;81.20
57857;DHT22;43683;48.650;9.290;2023-02-01T14:40:02;5.60;81.20
57857;DHT22;43683;48.650;9.290;2023-02-01T14:42:46;5.60;81.20
57857;DHT22;43683;48.650;9.290;2023-02-01T14:47:48;5.50;81.30
57857;DHT22;43683;48.650;9.290;2023-02-01T14:53:09;5.50;81.40
57857;DHT22;43683;48.650;9.290;2023-02-01T14:55:45;5.50;81.50
57857;DHT22;43683;48.650;9.290;2023-02-01T14:58:40;5.50;81.50
57857;DHT22;43683;48.650;9.290;2023-02-01T15:01:29;5.50;81.40
57857;DHT22;43683;48.650;9.290;2023-02-01T15:04:13;5.50;81.50
57857;DHT22;43683;48.650;9.290;2023-02-01T15:06:53;5.50;81.50
57857;DHT22;43683;48.650;9.290;2023-02-01T15:09:23;5.40;81.50
57857;DHT22;43683;48.650;9.290;2023-02-01T15:14:46;5.40;81.50
57857;DHT22;43683;48.650;9.290;2023-02-01T15:17:18;5.40;81.50
57857;DHT22;43683;48.650;9.290;2023-02-01T15:20:00;5.40;81.60
57857;DHT22;43683;48.650;9.290;2023-02-01T15:22:27;5.40;81.50
57857;DHT22;43683;48.650;9.290;2023-02-01T15:24:58;5.40;81.60
57857;DHT22;43683;48.650;9.290;2023-02-01T15:27:24;5.40;81.50
57857;DHT22;43683;48.650;9.290;2023-02-01T15:29:50;5.40;81.60
57857;DHT22;43683;48.650;9.290;2023-02-01T15:32:29;5.40;81.60
57857;DHT22;43683;48.650;9.290;2023-02-01T15:34:56;5.40;81.60
57857;DHT22;43683;48.650;9.290;2023-02-01T15:37:22;5.40;81.60
57857;DHT22;43683;48.650;9.290;2023-02-01T15:40:20;5.40;81.60
57857;DHT22;43683;48.650;9.290;2023-02-01T15:45:18;5.30;81.70
57857;DHT22;43683;48.650;9.290;2023-02-01T15:47:50;5.30;81.80
57857;DHT22;43683;48.650;9.290;2023-02-01T15:50:17;5.30;81.80
57857;DHT22;43683;48.650;9.290;2023-02-01T15:52:42;5.30;81.70
57857;DHT22;43683;48.650;9.290;2023-02-01T15:57:57;5.20;81.90
57857;DHT22;43683;48.650;9.290;2023-02-01T16:00:28;5.10;82.10
57857;DHT22;43683;48.650;9.290;2023-02-01T16:05:36;5.00;82.50
57857;DHT22;43683;48.650;9.290;2023-02-01T16:08:12;5.00;82.40
57857;DHT22;43683;48.650;9.290;2023-02-01T16:10:43;5.10;82.30
57857;DHT22;43683;48.650;9.290;2023-02-01T16:13:10;5.10;82.20
57857;DHT22;43683;48.650;9.290;2023-02-01T16:15:35;5.10;82.10
57857;DHT22;43683;48.650;9.290;2023-02-01T16:18:01;5.10;82.10
57857;DHT22;43683;48.650;9.290;2023-02-01T16:20:26;5.10;82.20
57857;DHT22;43683;48.650;9.290;2023-02-01T16:22:52;5.10;82.20
57857;DHT22;43683;48.650;9.290;2023-02-01T16:25:18;5.10;82.30
57857;DHT22;43683;48.650;9.290;2023-02-01T16:27:43;5.10;82.20
57857;DHT22;43683;48.650;9.290;2023-02-01T16:30:09;5.10;82.30
57857;DHT22;43683;48.650;9.290;2023-02-01T16:32:36;5.10;82.30
57857;DHT22;43683;48.650;9.290;2023-02-01T16:35:11;5.10;82.40
57857;DHT22;43683;48.650;9.290;2023-02-01T16:37:38;5.10;82.30
57857;DHT22;43683;48.650;9.290;2023-02-01T16:40:04;5.10;82.30
57857;DHT22;43683;48.650;9.290;2023-02-01T16:42:30;5.10;82.20
57857;DHT22;43683;48.650;9.290;2023-02-01T16:44:56;5.10;82.40
57857;DHT22;43683;48.650;9.290;2023-02-01T16:47:22;5.10;82.20
57857;DHT22;43683;48.650;9.290;2023-02-01T16:49:48;5.10;82.10
57857;DHT22;43683;48.650;9.290;2023-02-01T16:52:16;5.10;82.10
57857;DHT22;43683;48.650;9.290;2023-02-01T16:54:43;5.10;82.10
57857;DHT22;43683;48.650;9.290;2023-02-01T16:57:13;5.20;82.10
57857;DHT22;43683;48.650;9.290;2023-02-01T16:59:40;5.20;82.80
57857;DHT22;43683;48.650;9.290;2023-02-01T17:02:08;5.10;82.00
57857;DHT22;43683;48.650;9.290;2023-02-01T17:04:35;5.20;82.00
57857;DHT22;43683;48.650;9.290;2023-02-01T17:07:01;5.20;81.90
57857;DHT22;43683;48.650;9.290;2023-02-01T17:09:36;5.20;81.90
57857;DHT22;43683;48.650;9.290;2023-02-01T17:12:03;5.20;81.80
57857;DHT22;43683;48.650;9.290;2023-02-01T17:14:31;5.20;81.60
57857;DHT22;43683;48.650;9.290;2023-02-01T17:16:57;5.20;81.50
57857;DHT22;43683;48.650;9.290;2023-02-01T17:19:23;5.20;81.50
57857;DHT22;43683;48.650;9.290;2023-02-01T17:21:51;5.20;81.50
57857;DHT22;43683;48.650;9.290;2023-02-01T17:24:30;5.20;81.60
57857;DHT22;43683;48.650;9.290;2023-02-01T17:26:56;5.10;81.70
57857;DHT22;43683;48.650;9.290;2023-02-01T17:29:22;5.10;81.70
57857;DHT22;43683;48.650;9.290;2023-02-01T17:31:50;5.10;81.70
57857;DHT22;43683;48.650;9.290;2023-02-01T17:34:17;5.10;81.70
57857;DHT22;43683;48.650;9.290;2023-02-01T17:36:44;5.00;81.80
57857;DHT22;43683;48.650;9.290;2023-02-01T17:39:10;5.00;82.00
57857;DHT22;43683;48.650;9.290;2023-02-01T17:41:36;4.90;82.00